Time;durP1;ratioP1;P1;durP2;ratioP2;P2;SDS_P1;SDS_P2;PMS_P1;PMS_P2;Temp;Humidity;BMP_temperature;BMP_pressure;BME280_temperature;BME280_humidity;BME280_pressure;Samples;Min_cycle;Max_cycle;Signal;HPM_P1;HPM_P2
2023/08/10 00:00:59;;;;;;;;;;;;;;;26.60;43.02;101370.00;5114619;28;19916;-88
2023/08/10 00:03:33;;;;;;;;;;;;;;;26.61;43.15;101371.81;5128543;27;19921;-88
2023/08/10 00:05:59;;;;;;;;;;;;;;;26.64;43.21;101378.94;5136377;27;20388;-88
2023/08/10 00:08:24;;;;;;;;;;;;;;;26.62;43.08;101370.00;5092617;28;19920;-88
2023/08/10 00:10:50;;;;;;;;;;;;;;;26.59;43.17;101358.41;5103645;28;20324;-86
2023/08/10 00:13:16;;;;;;;;;;;;;;;26.56;43.19;101363.78;5082925;28;19977;-88
2023/08/10 00:15:43;;;;;;;;;;;;;;;26.59;43.10;101365.56;5105104;28;19971;-88
2023/08/10 00:18:09;;;;;;;;;;;;;;;26.60;43.24;101373.56;5099374;28;19916;-88
2023/08/10 00:20:34;;;;;;;;;;;;;;;26.56;43.12;101365.50;5094992;28;20288;-88
2023/08/10 00:23:00;;;;;;;;;;;;;;;26.54;43.09;101364.63;5095451;28;19939;-88
2023/08/10 00:25:27;;;;;;;;;;;;;;;26.55;43.16;101363.75;5094134;28;19915;-89
2023/08/10 00:27:55;;;;;;;;;;;;;;;26.60;42.89;101368.22;5087681;28;19920;-88
2023/08/10 00:30:21;;;;;;;;;;;;;;;26.53;43.10;101358.38;5085772;28;20440;-88
2023/08/10 00:32:47;;;;;;;;;;;;;;;26.53;43.08;101363.75;5076498;28;20007;-88
2023/08/10 00:35:13;;;;;;;;;;;;;;;26.50;43.14;101353.06;5105742;28;19916;-87
2023/08/10 00:37:39;;;;;;;;;;;;;;;26.53;42.90;101341.44;5076138;28;20003;-87
2023/08/10 00:40:05;;;;;;;;;;;;;;;26.49;43.22;101339.66;5093249;28;19947;-86
2023/08/10 00:42:30;;;;;;;;;;;;;;;26.52;43.10;101342.31;5093234;28;19935;-87
2023/08/10 00:44:56;;;;;;;;;;;;;;;26.48;42.94;101338.75;5093418;28;19984;-87
2023/08/10 00:47:21;;;;;;;;;;;;;;;26.50;43.08;101338.75;5105515;28;19920;-87
2023/08/10 00:49:47;;;;;;;;;;;;;;;26.46;43.08;101343.22;5096256;28;19920;-87
2023/08/10 00:52:13;;;;;;;;;;;;;;;26.49;43.07;101343.22;5092927;28;19912;-87
2023/08/10 00:54:39;;;;;;;;;;;;;;;26.46;42.84;101345.00;5093132;28;19916;-88
2023/08/10 00:57:04;;;;;;;;;;;;;;;26.46;43.17;101350.34;5105343;28;19965;-86
2023/08/10 00:59:30;;;;;;;;;;;;;;;26.50;42.93;101353.06;5095176;28;19947;-89
2023/08/10 01:01:56;;;;;;;;;;;;;;;26.50;42.83;101341.41;5099022;28;19912;-88
2023/08/10 01:04:21;;;;;;;;;;;;;;;26.49;42.82;101334.28;5091740;28;19920;-88
2023/08/10 01:06:49;;;;;;;;;;;;;;;26.45;42.80;101327.16;5095216;28;19916;-88
2023/08/10 01:09:15;;;;;;;;;;;;;;;26.44;42.93;101328.03;5103052;28;20004;-88
2023/08/10 01:11:41;;;;;;;;;;;;;;;26.42;42.97;101309.31;5123100;27;19967;-87
2023/08/10 01:14:11;;;;;;;;;;;;;;;26.45;42.75;101314.66;5109823;28;19916;-87
2023/08/10 01:16:38;;;;;;;;;;;;;;;26.49;42.91;101311.06;5123351;27;19919;-87
2023/08/10 01:19:04;;;;;;;;;;;;;;;26.45;42.75;101316.44;5121318;27;19922;-87
2023/08/10 01:21:33;;;;;;;;;;;;;;;26.41;42.70;101315.56;5115309;28;19919;-87
2023/08/10 01:24:00;;;;;;;;;;;;;;;26.42;43.02;101317.34;5116239;27;19961;-86
2023/08/10 01:26:26;;;;;;;;;;;;;;;26.39;42.99;101320.03;5102745;27;20380;-88
2023/08/10 01:28:52;;;;;;;;;;;;;;;26.38;42.92;101318.25;5130106;27;20038;-87
2023/08/10 01:31:18;;;;;;;;;;;;;;;26.36;43.01;101326.28;5108230;27;20002;-87
2023/08/10 01:33:43;;;;;;;;;;;;;;;26.39;42.64;101330.72;5121855;27;19920;-87
2023/08/10 01:36:08;;;;;;;;;;;;;;;26.38;42.85;101332.53;5099644;27;20415;-87
2023/08/10 01:38:34;;;;;;;;;;;;;;;26.39;42.64;101331.66;5103913;28;20388;-88
2023/08/10 01:40:59;;;;;;;;;;;;;;;26.37;42.60;101338.78;5127814;27;20416;-87
2023/08/10 01:43:25;;;;;;;;;;;;;;;26.40;42.85;101348.59;5114078;28;19972;-88
2023/08/10 01:45:52;;;;;;;;;;;;;;;26.35;42.98;101342.34;5114795;27;20419;-88
2023/08/10 01:48:23;;;;;;;;;;;;;;;26.33;42.63;101338.78;5110756;27;20006;-88
2023/08/10 01:50:49;;;;;;;;;;;;;;;26.34;42.88;101329.88;5113966;27;20404;-86
2023/08/10 01:53:18;;;;;;;;;;;;;;;26.32;42.77;101320.94;5112870;28;19916;-86
2023/08/10 01:55:44;;;;;;;;;;;;;;;26.31;42.76;101321.81;5133166;27;19941;-87
2023/08/10 01:58:09;;;;;;;;;;;;;;;26.31;42.71;101312.03;5100758;28;19911;-86
2023/08/10 02:00:41;;;;;;;;;;;;;;;26.34;42.66;101311.13;5097979;28;19923;-87
2023/08/10 02:03:06;;;;;;;;;;;;;;;26.35;42.77;101320.91;5103602;28;19916;-86
2023/08/10 02:05:32;;;;;;;;;;;;;;;26.31;42.76;101324.50;5090713;27;20014;-87
2023/08/10 02:07:57;;;;;;;;;;;;;;;26.28;42.67;101333.44;5106953;28;20331;-86
2023/08/10 02:10:23;;;;;;;;;;;;;;;26.31;42.59;101327.19;5105969;28;19916;-89
2023/08/10 02:12:48;;;;;;;;;;;;;;;26.29;42.65;101328.97;5116690;27;19927;-88
2023/08/10 02:15:14;;;;;;;;;;;;;;;26.26;42.67;101337.03;5111590;28;20391;-88
2023/08/10 02:17:42;;;;;;;;;;;;;;;26.26;42.59;101331.66;5112016;28;20403;-87
2023/08/10 02:20:13;;;;;;;;;;;;;;;26.27;42.78;101334.34;5095491;28;20377;-88
2023/08/10 02:22:41;;;;;;;;;;;;;;;26.29;42.57;101345.94;5127512;27;19912;-87
2023/08/10 02:25:06;;;;;;;;;;;;;;;26.32;42.60;101340.56;5111541;27;20361;-88
2023/08/10 02:27:32;;;;;;;;;;;;;;;26.32;42.59;101345.94;5085663;28;19954;-87
2023/08/10 02:29:57;;;;;;;;;;;;;;;26.26;42.43;101348.59;5108863;28;20025;-88
2023/08/10 02:32:22;;;;;;;;;;;;;;;26.29;42.65;101350.38;5108441;27;19912;-88
2023/08/10 02:34:48;;;;;;;;;;;;;;;26.27;42.41;101349.50;5108840;27;20385;-88
2023/08/10 02:37:13;;;;;;;;;;;;;;;26.23;42.71;101348.63;5098633;28;19915;-88
2023/08/10 02:39:39;;;;;;;;;;;;;;;26.21;42.52;101342.38;5108158;28;20397;-88
2023/08/10 02:42:04;;;;;;;;;;;;;;;26.20;42.80;101340.59;5093252;28;19916;-88
2023/08/10 02:44:30;;;;;;;;;;;;;;;26.20;42.60;101332.56;5120950;27;19912;-88
2023/08/10 02:46:55;;;;;;;;;;;;;;;26.18;42.69;101331.66;5121301;27;19922;-88
2023/08/10 02:49:20;;;;;;;;;;;;;;;26.18;42.89;101324.53;5097042;28;20353;-89
2023/08/10 02:51:46;;;;;;;;;;;;;;;26.20;42.53;101332.56;5101165;28;20388;-92
2023/08/10 02:54:11;;;;;;;;;;;;;;;26.18;42.58;101334.34;5102299;28;20366;-92
2023/08/10 02:56:40;;;;;;;;;;;;;;;26.19;42.30;101330.78;5092957;28;22256;-89
2023/08/10 02:59:06;;;;;;;;;;;;;;;26.15;42.62;101324.53;5102529;28;19912;-89
2023/08/10 03:01:31;;;;;;;;;;;;;;;26.14;42.37;101316.50;5099881;28;20282;-89
2023/08/10 03:03:58;;;;;;;;;;;;;;;26.18;42.43;101329.91;5092619;28;19963;-91
2023/08/10 03:06:23;;;;;;;;;;;;;;;26.19;42.35;101330.78;5103070;28;20182;-91
2023/08/10 03:08:50;;;;;;;;;;;;;;;26.14;42.54;101325.44;5106619;28;20381;-92
2023/08/10 03:11:18;;;;;;;;;;;;;;;26.13;42.61;101320.09;5092870;28;19916;-91
2023/08/10 03:13:43;;;;;;;;;;;;;;;26.14;42.43;101328.13;5092463;28;19919;-90
2023/08/10 03:16:14;;;;;;;;;;;;;;;26.21;42.48;101320.97;5085709;28;20382;-89
2023/08/10 03:18:39;;;;;;;;;;;;;;;26.15;42.36;101329.88;5092504;28;20037;-88
2023/08/10 03:21:05;;;;;;;;;;;;;;;26.10;42.67;101329.03;5107293;28;20397;-88
2023/08/10 03:23:30;;;;;;;;;;;;;;;26.11;42.37;101321.88;5090833;28;19995;-90
2023/08/10 03:25:56;;;;;;;;;;;;;;;26.09;42.75;101323.66;5104974;28;20052;-88
2023/08/10 03:28:22;;;;;;;;;;;;;;;26.07;42.75;101323.66;5116186;27;19919;-92
2023/08/10 03:30:48;;;;;;;;;;;;;;;26.06;42.46;101318.31;5090719;28;20044;-88
2023/08/10 03:33:13;;;;;;;;;;;;;;;26.04;42.55;101321.00;5092647;28;19945;-89
2023/08/10 03:36:10;;;;;;;;;;;;;;;26.05;42.43;101332.59;5069156;28;19923;-89
2023/08/10 03:38:35;;;;;;;;;;;;;;;26.07;42.54;101334.34;5110277;28;19927;-88
2023/08/10 03:41:00;;;;;;;;;;;;;;;26.06;42.34;101334.38;5087108;28;19912;-89
2023/08/10 03:43:26;;;;;;;;;;;;;;;26.05;42.55;101338.81;5062266;28;19924;-86
2023/08/10 03:46:07;;;;;;;;;;;;;;;26.04;42.44;101330.81;5074109;28;19919;-90
2023/08/10 03:48:37;;;;;;;;;;;;;;;26.00;42.59;101329.91;5106110;28;19923;-89
2023/08/10 03:51:03;;;;;;;;;;;;;;;26.01;42.58;101326.31;5086598;28;20304;-87
2023/08/10 03:53:32;;;;;;;;;;;;;;;26.07;42.33;101336.16;5073926;28;19920;-87
2023/08/10 03:55:57;;;;;;;;;;;;;;;26.06;42.46;101329.03;5082985;28;19916;-85
2023/08/10 03:58:51;;;;;;;;;;;;;;;26.04;42.51;101314.75;5084821;28;19938;-85
2023/08/10 04:01:17;;;;;;;;;;;;;;;25.99;42.40;101307.63;5097205;28;19915;-84
2023/08/10 04:03:43;;;;;;;;;;;;;;;26.05;42.23;101313.84;5080602;28;19924;-84
2023/08/10 04:06:08;;;;;;;;;;;;;;;26.00;42.51;101314.75;5068028;28;19923;-83
2023/08/10 04:08:35;;;;;;;;;;;;;;;26.00;42.39;101314.75;5108003;28;19920;-85
2023/08/10 04:11:01;;;;;;;;;;;;;;;25.99;42.26;101312.97;5090471;28;19970;-85
2023/08/10 04:13:26;;;;;;;;;;;;;;;26.00;42.25;101306.72;5105588;28;20340;-86
2023/08/10 04:15:52;;;;;;;;;;;;;;;25.95;42.30;101313.88;5100139;28;19916;-86
2023/08/10 04:18:17;;;;;;;;;;;;;;;25.92;42.42;101311.19;5097873;28;19915;-86
2023/08/10 04:20:43;;;;;;;;;;;;;;;25.96;42.12;101317.44;5098745;28;19916;-87
2023/08/10 04:23:08;;;;;;;;;;;;;;;25.99;42.44;101317.41;5090773;28;20307;-86
2023/08/10 04:25:34;;;;;;;;;;;;;;;25.93;42.34;101323.69;5116403;28;20384;-86
2023/08/10 04:27:59;;;;;;;;;;;;;;;25.96;42.36;101310.28;5076013;28;19943;-86
2023/08/10 04:30:29;;;;;;;;;;;;;;;25.93;42.45;101298.69;5081660;28;19977;-86
2023/08/10 04:32:54;;;;;;;;;;;;;;;25.90;42.44;101306.72;5117928;28;19916;-87
2023/08/10 04:35:20;;;;;;;;;;;;;;;25.91;42.47;101316.56;5090743;28;19920;-87
2023/08/10 04:37:48;;;;;;;;;;;;;;;25.96;42.38;101323.66;5110976;28;19963;-87
2023/08/10 04:40:13;;;;;;;;;;;;;;;25.99;42.21;101322.75;5097049;28;19916;-87
2023/08/10 04:42:40;;;;;;;;;;;;;;;25.92;42.23;101321.00;5094333;28;19912;-87
2023/08/10 04:45:06;;;;;;;;;;;;;;;25.92;42.25;101315.63;5114091;27;19916;-88
2023/08/10 04:47:31;;;;;;;;;;;;;;;25.94;42.22;101325.44;5097047;28;19923;-88
2023/08/10 04:49:57;;;;;;;;;;;;;;;25.91;42.07;101314.75;5081145;28;19912;-87
2023/08/10 04:52:23;;;;;;;;;;;;;;;25.94;42.29;101317.41;5098129;28;20392;-88
2023/08/10 04:54:49;;;;;;;;;;;;;;;25.89;42.42;101305.84;5082190;28;20015;-89
2023/08/10 04:57:14;;;;;;;;;;;;;;;25.88;42.27;101311.16;5110138;28;19966;-85
2023/08/10 04:59:40;;;;;;;;;;;;;;;25.87;42.52;101309.38;5094066;28;19916;-87
2023/08/10 05:02:11;;;;;;;;;;;;;;;25.88;42.38;101311.16;5104476;28;19916;-85
2023/08/10 05:04:36;;;;;;;;;;;;;;;25.87;42.46;101306.72;5082692;28;19948;-88
2023/08/10 05:07:01;;;;;;;;;;;;;;;25.87;42.14;101309.38;5094559;28;20414;-87
2023/08/10 05:09:27;;;;;;;;;;;;;;;25.91;42.41;101308.53;5115094;27;20388;-86
2023/08/10 05:11:52;;;;;;;;;;;;;;;25.85;42.34;101303.13;5088035;28;19920;-84
2023/08/10 05:14:19;;;;;;;;;;;;;;;25.89;42.46;101297.81;5086697;28;19985;-85
2023/08/10 05:16:45;;;;;;;;;;;;;;;25.89;42.42;101296.94;5096337;28;19956;-86
2023/08/10 05:19:10;;;;;;;;;;;;;;;25.95;42.34;101286.19;5093070;28;20409;-85
2023/08/10 05:21:35;;;;;;;;;;;;;;;25.89;42.29;101264.81;5075403;28;19912;-85
2023/08/10 05:24:01;;;;;;;;;;;;;;;25.91;42.32;101257.69;5110821;27;19916;-85
2023/08/10 05:26:27;;;;;;;;;;;;;;;25.83;42.51;101257.63;5122156;27;20449;-87
2023/08/10 05:28:53;;;;;;;;;;;;;;;25.83;42.30;101272.81;5107846;28;20173;-86
2023/08/10 05:31:18;;;;;;;;;;;;;;;25.88;42.01;101269.22;5099142;28;20406;-84
2023/08/10 05:33:44;;;;;;;;;;;;;;;25.87;42.15;101262.09;5093073;28;20444;-86
2023/08/10 05:36:09;;;;;;;;;;;;;;;25.84;42.24;101271.91;5109636;27;20432;-87
2023/08/10 05:38:34;;;;;;;;;;;;;;;25.88;42.34;101277.25;5099232;28;19920;-87
2023/08/10 05:41:01;;;;;;;;;;;;;;;25.88;42.33;101281.72;5100059;27;20413;-86
2023/08/10 05:43:26;;;;;;;;;;;;;;;25.84;42.60;101285.28;5089352;28;19964;-87
2023/08/10 05:45:52;;;;;;;;;;;;;;;25.90;42.28;101279.97;5095120;27;20649;-85
2023/08/10 05:48:17;;;;;;;;;;;;;;;25.86;42.46;101275.47;5122446;27;19922;-86
2023/08/10 05:50:43;;;;;;;;;;;;;;;25.90;42.33;101282.63;5094893;28;20526;-85
2023/08/10 05:53:08;;;;;;;;;;;;;;;25.95;42.18;101278.16;5100185;28;19927;-85
2023/08/10 05:55:34;;;;;;;;;;;;;;;25.86;42.30;101273.69;5084051;27;20014;-84
2023/08/10 05:57:59;;;;;;;;;;;;;;;25.89;42.30;101283.53;5096452;28;20419;-86
2023/08/10 06:00:26;;;;;;;;;;;;;;;25.85;42.31;101279.06;5102304;28;19919;-85
2023/08/10 06:02:52;;;;;;;;;;;;;;;25.86;42.24;101284.38;5082195;28;19966;-86
2023/08/10 06:05:17;;;;;;;;;;;;;;;25.84;42.58;101288.84;5095224;28;20351;-86
2023/08/10 06:07:47;;;;;;;;;;;;;;;25.80;42.63;101285.31;5086313;27;19930;-86
2023/08/10 06:10:13;;;;;;;;;;;;;;;25.91;42.15;101277.28;5118510;27;19915;-85
2023/08/10 06:12:38;;;;;;;;;;;;;;;25.89;42.17;101279.09;5114797;27;19916;-85
2023/08/10 06:15:04;;;;;;;;;;;;;;;25.86;42.13;101267.44;5129009;27;20407;-87
2023/08/10 06:17:30;;;;;;;;;;;;;;;25.83;42.50;101280.84;5103948;27;19920;-86
2023/08/10 06:19:57;;;;;;;;;;;;;;;25.80;42.49;101271.91;5111510;28;19912;-85
2023/08/10 06:22:22;;;;;;;;;;;;;;;25.79;43.04;101269.25;5123548;27;19921;-84
2023/08/10 06:24:47;;;;;;;;;;;;;;;25.84;43.18;101263.88;5118726;27;20002;-84
2023/08/10 06:27:13;;;;;;;;;;;;;;;25.81;43.09;101267.44;5100481;28;19923;-85
2023/08/10 06:29:40;;;;;;;;;;;;;;;25.80;43.21;101273.69;5124055;27;20015;-85
2023/08/10 06:32:07;;;;;;;;;;;;;;;25.80;43.26;101271.00;5111107;28;19947;-85
2023/08/10 06:34:33;;;;;;;;;;;;;;;25.79;43.40;101272.81;5112489;28;19955;-84
2023/08/10 06:36:59;;;;;;;;;;;;;;;25.80;43.25;101271.00;5094067;28;19959;-84
2023/08/10 06:39:27;;;;;;;;;;;;;;;25.80;43.25;101269.25;5115595;27;20311;-86
2023/08/10 06:41:52;;;;;;;;;;;;;;;25.84;43.03;101274.59;5119486;27;19958;-85
2023/08/10 06:44:18;;;;;;;;;;;;;;;25.83;43.23;101272.81;5118598;27;19947;-88
2023/08/10 06:46:43;;;;;;;;;;;;;;;25.88;43.22;101277.25;5111432;28;19946;-85
2023/08/10 06:49:09;;;;;;;;;;;;;;;25.80;43.26;101277.28;5113457;28;19942;-85
2023/08/10 06:51:35;;;;;;;;;;;;;;;25.82;43.31;101274.56;5113127;27;19950;-86
2023/08/10 06:54:01;;;;;;;;;;;;;;;25.86;43.08;101279.03;5094530;28;20320;-86
2023/08/10 06:56:26;;;;;;;;;;;;;;;25.83;43.14;101280.84;5111284;28;19919;-85
2023/08/10 06:58:52;;;;;;;;;;;;;;;25.85;43.23;101279.94;5112578;28;19912;-85
2023/08/10 07:01:17;;;;;;;;;;;;;;;25.85;43.21;101290.66;5094315;28;19938;-86
2023/08/10 07:03:43;;;;;;;;;;;;;;;25.85;43.14;101284.41;5126545;27;19919;-87
2023/08/10 07:06:08;;;;;;;;;;;;;;;25.86;43.35;101281.72;5112558;28;19912;-86
2023/08/10 07:08:33;;;;;;;;;;;;;;;25.85;43.18;101290.66;5100594;28;19920;-84
2023/08/10 07:11:02;;;;;;;;;;;;;;;25.84;43.22;101287.97;5106783;28;20002;-86
2023/08/10 07:13:28;;;;;;;;;;;;;;;25.85;43.40;101292.44;5092335;28;20010;-86
2023/08/10 07:15:53;;;;;;;;;;;;;;;25.85;43.21;101293.31;5101422;28;19970;-88
2023/08/10 07:18:19;;;;;;;;;;;;;;;25.82;43.35;101282.59;5096490;28;20351;-85
2023/08/10 07:20:44;;;;;;;;;;;;;;;25.83;43.19;101289.75;5073893;28;19959;-85
2023/08/10 07:23:11;;;;;;;;;;;;;;;25.84;43.16;101286.16;5091853;28;19955;-86
2023/08/10 07:25:37;;;;;;;;;;;;;;;25.83;42.84;101283.50;5091219;28;20328;-85
2023/08/10 07:28:04;;;;;;;;;;;;;;;25.83;43.07;101280.84;5090543;28;20001;-84
2023/08/10 07:30:30;;;;;;;;;;;;;;;25.84;42.85;101275.47;5091755;28;19912;-84
2023/08/10 07:32:55;;;;;;;;;;;;;;;25.84;43.11;101285.28;5086992;28;20034;-86
2023/08/10 07:35:21;;;;;;;;;;;;;;;25.81;42.88;101283.50;5103133;28;19900;-86
2023/08/10 07:37:48;;;;;;;;;;;;;;;25.82;43.03;101292.41;5074180;28;19923;-85
2023/08/10 07:40:14;;;;;;;;;;;;;;;25.83;42.83;101284.41;5099851;28;20358;-85
2023/08/10 07:42:39;;;;;;;;;;;;;;;25.83;42.84;101284.41;5085118;28;19916;-86
2023/08/10 07:45:05;;;;;;;;;;;;;;;25.79;42.73;101274.59;5091653;28;20011;-86
2023/08/10 07:47:30;;;;;;;;;;;;;;;25.80;42.95;101287.97;5073399;28;19916;-86
2023/08/10 07:49:56;;;;;;;;;;;;;;;25.83;42.80;101287.06;5090254;28;20361;-86
2023/08/10 07:52:21;;;;;;;;;;;;;;;25.80;42.61;101282.63;5090902;28;20309;-86
2023/08/10 07:54:47;;;;;;;;;;;;;;;25.81;42.73;101272.81;5091648;28;20404;-86
2023/08/10 07:57:12;;;;;;;;;;;;;;;25.83;42.78;101273.69;5111999;28;20419;-85
2023/08/10 07:59:37;;;;;;;;;;;;;;;25.82;42.92;101263.88;5097626;28;19973;-86
2023/08/10 08:02:03;;;;;;;;;;;;;;;25.86;42.86;101262.97;5093497;28;19984;-84
2023/08/10 08:04:28;;;;;;;;;;;;;;;25.89;43.10;101280.88;5101789;28;19968;-85
2023/08/10 08:06:54;;;;;;;;;;;;;;;25.86;42.70;101281.72;5091230;28;19959;-87
2023/08/10 08:09:22;;;;;;;;;;;;;;;25.83;42.95;101281.72;5103583;28;20445;-85
2023/08/10 08:11:47;;;;;;;;;;;;;;;25.90;42.87;101278.16;5098066;28;19970;-85
2023/08/10 08:14:13;;;;;;;;;;;;;;;25.88;42.92;101268.34;5102186;28;19959;-84
2023/08/10 08:16:38;;;;;;;;;;;;;;;25.83;43.00;101281.72;5095049;28;19920;-85
2023/08/10 08:19:04;;;;;;;;;;;;;;;25.84;42.80;101277.25;5093991;28;19912;-85
2023/08/10 08:21:30;;;;;;;;;;;;;;;25.86;42.83;101276.34;5095170;28;19912;-87
2023/08/10 08:23:56;;;;;;;;;;;;;;;25.85;43.18;101274.59;5093619;28;19916;-84
2023/08/10 08:26:26;;;;;;;;;;;;;;;25.87;42.87;101277.28;5099026;28;19915;-84
2023/08/10 08:28:52;;;;;;;;;;;;;;;25.88;42.86;101263.88;5095091;28;19994;-84
2023/08/10 08:31:17;;;;;;;;;;;;;;;25.87;42.70;101259.44;5094689;28;20027;-84
2023/08/10 08:33:43;;;;;;;;;;;;;;;25.91;42.75;101263.03;5094886;28;19920;-83
2023/08/10 08:36:08;;;;;;;;;;;;;;;25.89;42.73;101270.16;5108037;28;20351;-83
2023/08/10 08:38:34;;;;;;;;;;;;;;;25.85;42.80;101271.91;5076588;28;20301;-84
2023/08/10 08:41:06;;;;;;;;;;;;;;;25.85;43.02;101281.72;5111694;28;20460;-86
2023/08/10 08:43:32;;;;;;;;;;;;;;;25.91;42.55;101265.72;5104572;28;19919;-84
2023/08/10 08:45:58;;;;;;;;;;;;;;;25.91;42.65;101252.31;5094413;28;19985;-84
2023/08/10 08:48:25;;;;;;;;;;;;;;;25.91;42.19;101258.56;5093407;28;19913;-84
2023/08/10 08:50:50;;;;;;;;;;;;;;;25.93;42.74;101258.53;5078686;28;19923;-84
2023/08/10 08:53:15;;;;;;;;;;;;;;;25.93;42.55;101266.56;5107832;28;19916;-84
2023/08/10 08:55:41;;;;;;;;;;;;;;;25.94;42.63;101265.69;5097114;28;20404;-87
2023/08/10 08:58:07;;;;;;;;;;;;;;;25.92;42.51;101271.03;5090125;28;19916;-87
2023/08/10 09:00:32;;;;;;;;;;;;;;;25.91;42.74;101271.06;5092565;28;20388;-86
2023/08/10 09:02:58;;;;;;;;;;;;;;;25.96;42.54;101266.56;5113844;28;19911;-86
2023/08/10 09:05:23;;;;;;;;;;;;;;;25.95;42.62;101275.47;5111238;28;19923;-87
2023/08/10 09:07:52;;;;;;;;;;;;;;;25.94;42.78;101271.94;5119701;27;19920;-89
2023/08/10 09:10:19;;;;;;;;;;;;;;;25.93;43.13;101274.59;5093630;28;20061;-88
2023/08/10 09:12:46;;;;;;;;;;;;;;;25.96;42.91;101274.59;5096573;28;19922;-88
2023/08/10 09:15:12;;;;;;;;;;;;;;;25.97;43.13;101269.25;5111967;28;19916;-88
2023/08/10 09:17:44;;;;;;;;;;;;;;;25.95;42.99;101262.09;5086327;28;20324;-88
2023/08/10 09:20:09;;;;;;;;;;;;;;;25.95;43.39;101256.75;5095735;28;20413;-88
2023/08/10 09:22:35;;;;;;;;;;;;;;;25.98;43.42;101259.44;5094852;28;19916;-88
2023/08/10 09:25:01;;;;;;;;;;;;;;;26.00;43.20;101252.31;5100692;28;19924;-88
2023/08/10 09:27:28;;;;;;;;;;;;;;;25.99;43.52;101245.16;5076055;28;19970;-88
2023/08/10 09:29:57;;;;;;;;;;;;;;;26.05;43.05;101244.25;5093969;28;20351;-87
2023/08/10 09:32:23;;;;;;;;;;;;;;;26.06;43.28;101243.38;5076969;28;19912;-89
2023/08/10 09:34:48;;;;;;;;;;;;;;;26.05;43.34;101238.91;5087877;28;19916;-87
2023/08/10 09:37:14;;;;;;;;;;;;;;;26.06;43.46;101240.69;5094021;28;19919;-88
2023/08/10 09:39:39;;;;;;;;;;;;;;;26.08;43.39;101242.47;5103910;28;19947;-87
2023/08/10 09:42:05;;;;;;;;;;;;;;;26.06;43.60;101238.03;5100275;28;20456;-88
2023/08/10 09:44:46;;;;;;;;;;;;;;;26.09;43.60;101235.31;5113942;28;19915;-88
2023/08/10 09:47:12;;;;;;;;;;;;;;;26.03;43.38;101238.91;5098402;27;19924;-87
2023/08/10 09:49:57;;;;;;;;;;;;;;;26.06;43.43;101244.25;5099376;28;19923;-87
2023/08/10 09:52:23;;;;;;;;;;;;;;;26.05;43.48;101247.81;5076117;28;20086;-88
2023/08/10 09:54:50;;;;;;;;;;;;;;;26.09;43.50;101262.97;5112350;28;19920;-87
2023/08/10 09:57:22;;;;;;;;;;;;;;;26.10;43.56;101256.75;5097211;28;20010;-90
2023/08/10 09:59:48;;;;;;;;;;;;;;;26.08;43.47;101263.88;5076251;28;19916;-88
2023/08/10 10:02:13;;;;;;;;;;;;;;;26.12;43.49;101257.63;5084040;28;19927;-87
2023/08/10 10:04:39;;;;;;;;;;;;;;;26.14;43.24;101250.50;5095177;28;19915;-86
2023/08/10 10:07:08;;;;;;;;;;;;;;;26.13;43.58;101250.50;5092686;28;19959;-87
2023/08/10 10:09:34;;;;;;;;;;;;;;;26.15;43.44;101257.59;5106750;28;19924;-87
2023/08/10 10:12:01;;;;;;;;;;;;;;;26.20;43.65;101249.56;5115250;27;19916;-89
2023/08/10 10:14:28;;;;;;;;;;;;;;;26.20;43.96;101253.16;5078547;28;19924;-86
2023/08/10 10:17:03;;;;;;;;;;;;;;;26.20;43.87;101254.91;5077838;27;19939;-88
2023/08/10 10:19:42;;;;;;;;;;;;;;;26.28;43.80;101241.50;5100013;27;19912;-87
2023/08/10 10:22:24;;;;;;;;;;;;;;;26.23;44.11;101240.66;5093540;28;19911;-87
2023/08/10 10:24:50;;;;;;;;;;;;;;;26.24;43.99;101232.59;5105864;28;19916;-83
2023/08/10 10:27:16;;;;;;;;;;;;;;;26.30;43.68;101227.22;5092387;28;19939;-84
2023/08/10 10:29:45;;;;;;;;;;;;;;;26.28;43.93;101236.16;5106066;27;20377;-83
2023/08/10 10:32:11;;;;;;;;;;;;;;;26.32;43.71;101240.63;5100083;28;20064;-84
2023/08/10 10:34:37;;;;;;;;;;;;;;;26.30;43.87;101239.72;5094363;27;19998;-85
2023/08/10 10:37:16;;;;;;;;;;;;;;;26.30;43.93;101240.59;5083582;28;19931;-84
2023/08/10 10:39:42;;;;;;;;;;;;;;;26.31;43.68;101241.50;5103189;28;20106;-82
2023/08/10 10:42:12;;;;;;;;;;;;;;;26.33;43.72;101232.59;5072336;27;19979;-85
2023/08/10 10:44:56;;;;;;;;;;;;;;;26.29;43.75;101232.56;5082799;28;19916;-85
2023/08/10 10:47:33;;;;;;;;;;;;;;;26.33;43.58;101245.06;5108084;27;19916;-84
2023/08/10 10:49:59;;;;;;;;;;;;;;;26.36;43.37;101232.56;5066234;28;19912;-84
2023/08/10 10:52:55;;;;;;;;;;;;;;;26.37;43.41;101237.03;5090121;28;20822;-85
2023/08/10 10:55:28;;;;;;;;;;;;;;;26.35;43.41;101232.56;5069320;28;20042;-86
2023/08/10 10:57:54;;;;;;;;;;;;;;;26.43;43.60;101245.94;5105596;28;19919;-85
2023/08/10 11:00:21;;;;;;;;;;;;;;;26.39;43.63;101245.94;5082145;28;19915;-84
2023/08/10 11:03:04;;;;;;;;;;;;;;;26.40;43.55;101244.16;5102773;27;19971;-83
2023/08/10 11:05:39;;;;;;;;;;;;;;;26.52;43.34;101244.13;5094081;27;19912;-82
2023/08/10 11:08:08;;;;;;;;;;;;;;;26.40;43.50;101237.00;5100143;27;19920;-82
2023/08/10 11:10:35;;;;;;;;;;;;;;;26.44;43.51;101219.16;5075492;28;19912;-85
2023/08/10 11:13:05;;;;;;;;;;;;;;;26.41;44.07;101203.06;5110454;28;19981;-84
2023/08/10 11:15:30;;;;;;;;;;;;;;;26.31;46.48;101207.59;5100274;27;19915;-83
2023/08/10 11:17:57;;;;;;;;;;;;;;;26.23;45.45;101208.53;5121420;27;20022;-84
2023/08/10 11:20:23;;;;;;;;;;;;;;;26.36;45.71;101208.47;5093950;28;20300;-85
2023/08/10 11:22:49;;;;;;;;;;;;;;;26.18;45.95;101212.09;5095234;27;19915;-84
2023/08/10 11:25:15;;;;;;;;;;;;;;;26.15;46.00;101227.28;5111276;27;19998;-85
2023/08/10 11:27:42;;;;;;;;;;;;;;;26.11;47.19;101221.03;5110293;28;19989;-85
2023/08/10 11:30:09;;;;;;;;;;;;;;;26.18;46.26;101229.94;5086942;28;20381;-86
2023/08/10 11:32:39;;;;;;;;;;;;;;;26.08;48.74;101220.19;5105616;28;19918;-85
2023/08/10 11:35:05;;;;;;;;;;;;;;;26.06;48.10;101206.78;5118122;27;20372;-84
2023/08/10 11:37:34;;;;;;;;;;;;;;;26.03;47.12;101209.44;5118500;28;19927;-85
2023/08/10 11:40:07;;;;;;;;;;;;;;;26.03;47.46;101214.81;5115488;27;19969;-84
2023/08/10 11:42:36;;;;;;;;;;;;;;;26.00;47.61;101207.69;5096160;28;19912;-83
2023/08/10 11:45:06;;;;;;;;;;;;;;;26.03;48.47;101232.66;5118535;27;19911;-84
2023/08/10 11:47:41;;;;;;;;;;;;;;;25.97;47.97;101238.91;5104109;28;19920;-84
2023/08/10 11:50:09;;;;;;;;;;;;;;;26.02;47.99;101231.78;5126098;27;20426;-84
2023/08/10 11:52:34;;;;;;;;;;;;;;;26.08;47.05;101246.94;5117452;27;19920;-86
2023/08/10 11:55:07;;;;;;;;;;;;;;;26.09;49.43;101240.69;5128211;27;19919;-85
2023/08/10 11:57:36;;;;;;;;;;;;;;;25.94;48.99;101239.81;5129917;27;19916;-87
2023/08/10 12:00:18;;;;;;;;;;;;;;;25.91;49.80;101233.59;5110639;27;20357;-86
2023/08/10 12:03:00;;;;;;;;;;;;;;;25.94;47.92;101222.88;5125442;27;19924;-86
2023/08/10 12:05:45;;;;;;;;;;;;;;;25.93;47.90;101222.00;5122324;27;19915;-87
2023/08/10 12:08:11;;;;;;;;;;;;;;;25.91;50.39;101210.41;5134206;27;19919;-85
2023/08/10 12:10:46;;;;;;;;;;;;;;;25.92;48.29;101219.31;5108277;27;19922;-86
2023/08/10 12:13:16;;;;;;;;;;;;;;;25.93;49.60;101215.72;5118245;27;19927;-85
2023/08/10 12:15:50;;;;;;;;;;;;;;;25.98;49.19;101205.91;5120470;27;20430;-86
2023/08/10 12:18:17;;;;;;;;;;;;;;;25.91;48.41;101210.41;5116336;27;19920;-85
2023/08/10 12:20:43;;;;;;;;;;;;;;;25.91;50.40;101213.06;5115352;27;20373;-87
2023/08/10 12:23:09;;;;;;;;;;;;;;;25.89;49.43;101211.31;5130577;27;20392;-86
2023/08/10 12:25:34;;;;;;;;;;;;;;;25.87;49.21;101218.41;5127695;27;20006;-86
2023/08/10 12:28:00;;;;;;;;;;;;;;;25.87;49.67;101221.09;5118951;27;19955;-87
2023/08/10 12:30:25;;;;;;;;;;;;;;;25.89;49.00;101211.31;5128556;27;19925;-86
2023/08/10 12:32:50;;;;;;;;;;;;;;;25.93;49.47;101215.72;5107761;27;20446;-87
2023/08/10 12:35:16;;;;;;;;;;;;;;;25.94;50.48;101215.72;5096705;27;20327;-86